Time;durP1;ratioP1;P1;durP2;ratioP2;P2;SDS_P1;SDS_P2;PMS_P1;PMS_P2;Temp;Humidity;BMP_temperature;BMP_pressure;BME280_temperature;BME280_humidity;BME280_pressure;Samples;Min_cycle;Max_cycle;Signal;HPM_P1;HPM_P2
2022/11/27 00:12:56;;;;;;;21.10;6.87;;;10.50;87.70;;;;;;4785404;30;20327;-96
2022/11/27 00:16:03;;;;;;;8.90;4.83;;;10.50;87.90;;;;;;4793910;30;20213;-95
2022/11/27 00:23:20;;;;;;;;;;;;;;;;;;;;;
2022/11/27 00:26:14;;;;;;;10.77;5.03;;;10.50;88.20;;;;;;4813293;29;20223;-96
2022/11/27 00:29:30;;;;;;;;;;;;;;;;;;;;;
2022/11/27 00:36:21;;;;;;;11.80;4.43;;;10.40;87.80;;;;;;4851709;29;20204;-96
2022/11/27 00:39:40;;;;;;;14.20;5.90;;;10.40;88.10;;;;;;4837007;29;20215;-96
2022/11/27 01:11:00;;;;;;;10.00;5.17;;;10.30;87.60;;;;;;4816851;29;20208;-96
2022/11/27 01:14:14;;;;;;;8.37;4.77;;;10.30;87.70;;;;;;4834920;29;20264;-95
2022/11/27 02:51:37;;;;;;;12.53;4.97;;;10.40;89.00;;;;;;4786463;29;20666;-96
2022/11/27 02:57:39;;;;;;;15.30;5.83;;;10.40;88.90;;;;;;4829736;29;20224;-96
2022/11/27 03:07:37;;;;;;;16.90;6.07;;;10.50;89.30;;;;;;4840033;29;20294;-95
2022/11/27 03:10:39;;;;;;;10.10;4.70;;;10.40;89.20;;;;;;4816895;29;20218;-96
2022/11/27 03:13:27;;;;;;;13.93;5.57;;;10.40;89.30;;;;;;4828509;29;20211;-95
2022/11/27 03:16:53;;;;;;;9.67;4.47;;;10.50;89.50;;;;;;4885811;29;20213;-95
2022/11/27 03:29:35;;;;;;;14.83;5.90;;;10.40;89.80;;;;;;4945196;29;20221;-96
2022/11/27 03:32:29;;;;;;;12.33;5.00;;;10.40;90.20;;;;;;4871695;28;20215;-94
2022/11/27 03:41:22;;;;;;;13.67;4.60;;;10.40;90.40;;;;;;4957670;28;20234;-95
2022/11/27 03:44:08;;;;;;;14.23;5.77;;;10.40;90.50;;;;;;4968773;28;20207;-95
2022/11/27 03:47:08;;;;;;;13.30;4.73;;;10.40;90.70;;;;;;4969623;28;20298;-96
2022/11/27 03:50:17;;;;;;;7.10;3.83;;;10.40;90.50;;;;;;4960840;28;20254;-95
2022/11/27 04:00:31;;;;;;;9.10;4.40;;;10.50;90.60;;;;;;4960267;28;20912;-96
2022/11/27 04:03:16;;;;;;;;;;;;;;;;;;;;;
2022/11/27 04:09:25;;;;;;;;;;;;;;;;;;;;;
2022/11/27 04:18:34;;;;;;;9.67;3.97;;;10.40;90.80;;;;;;4947184;29;20357;-95
2022/11/27 04:24:05;;;;;;;13.13;4.37;;;10.40;90.80;;;;;;4958005;28;20220;-96
2022/11/27 04:26:55;;;;;;;14.87;4.60;;;10.40;90.90;;;;;;4957626;29;20218;-96
2022/11/27 04:29:47;;;;;;;12.53;4.30;;;10.40;90.80;;;;;;4955659;28;20211;-96
2022/11/27 04:32:22;;;;;;;12.60;4.27;;;10.40;90.90;;;;;;4937432;29;20303;-96
2022/11/27 04:35:24;;;;;;;11.27;4.47;;;10.40;90.90;;;;;;4946636;29;20203;-96
2022/11/27 04:51:54;;;;;;;13.90;5.47;;;10.30;91.10;;;;;;4962723;29;20247;-96
2022/11/27 04:54:35;;;;;;;13.20;4.83;;;10.30;91.30;;;;;;4969716;28;20208;-96
2022/11/27 04:57:25;;;;;;;10.57;4.57;;;10.30;91.20;;;;;;5069775;23;20248;-96
2022/11/27 05:03:36;;;;;;;11.57;4.23;;;10.30;91.50;;;;;;4949520;28;20235;-95
2022/11/27 05:06:09;;;;;;;8.13;4.20;;;10.30;91.30;;;;;;4980075;28;20286;-96
2022/11/27 05:09:03;;;;;;;19.27;5.70;;;10.30;91.30;;;;;;4981403;28;20217;-96
2022/11/27 05:11:44;;;;;;;10.17;4.43;;;10.30;91.30;;;;;;4964713;28;20195;-94
2022/11/27 05:14:39;;;;;;;14.17;4.90;;;10.30;91.40;;;;;;4965170;28;20227;-96
2022/11/27 05:17:20;;;;;;;10.37;3.73;;;10.30;91.40;;;;;;4970272;28;20246;-96
2022/11/27 05:20:48;;;;;;;9.93;4.17;;;10.20;91.40;;;;;;4973380;28;20207;-96
2022/11/27 05:23:24;;;;;;;10.93;4.53;;;10.20;91.60;;;;;;4962319;28;20226;-96
2022/11/27 05:26:15;;;;;;;7.13;3.83;;;10.20;91.50;;;;;;4964737;28;20980;-96
2022/11/27 05:29:01;;;;;;;6.57;3.60;;;10.20;91.70;;;;;;4972698;28;20475;-96
2022/11/27 05:31:30;;;;;;;10.10;4.23;;;10.20;91.80;;;;;;4974897;28;20246;-96
2022/11/27 05:33:58;;;;;;;7.73;3.53;;;10.20;91.70;;;;;;4967391;28;20619;-95
2022/11/27 05:37:14;;;;;;;18.37;5.93;;;10.20;91.70;;;;;;4978076;28;20219;-96
2022/11/27 05:42:47;;;;;;;11.50;4.23;;;10.20;91.80;;;;;;4980463;28;20229;-96
2022/11/27 05:52:25;;;;;;;11.23;4.10;;;10.20;91.90;;;;;;4973427;28;20200;-94
2022/11/27 05:55:23;;;;;;;9.50;4.03;;;10.20;92.00;;;;;;4992518;28;20214;-96
2022/11/27 06:07:23;;;;;;;14.60;4.77;;;10.10;92.00;;;;;;4986870;28;20198;-96
2022/11/27 06:10:08;;;;;;;9.83;3.20;;;10.10;91.90;;;;;;4980002;28;20263;-96
2022/11/27 06:13:34;;;;;;;12.37;4.03;;;10.10;92.10;;;;;;4980018;28;20673;-96
2022/11/27 06:19:33;;;;;;;12.73;4.50;;;10.10;92.00;;;;;;4979703;28;20221;-96
2022/11/27 06:22:14;;;;;;;10.43;3.60;;;10.10;92.10;;;;;;4969731;28;20228;-96
2022/11/27 06:24:47;;;;;;;9.23;3.93;;;10.10;92.30;;;;;;4981108;28;20946;-95
2022/11/27 06:27:43;;;;;;;10.60;4.13;;;10.10;92.20;;;;;;4984540;28;20657;-95
2022/11/27 06:30:12;;;;;;;14.40;4.53;;;10.10;92.50;;;;;;4968833;28;20735;-95
2022/11/27 06:32:45;;;;;;;12.40;3.97;;;10.10;92.30;;;;;;4979392;28;20209;-95
2022/11/27 06:35:43;;;;;;;9.47;3.47;;;10.10;92.40;;;;;;4965809;28;20272;-96
2022/11/27 06:38:24;;;;;;;9.47;4.23;;;10.10;92.50;;;;;;4965842;28;20236;-96
2022/11/27 06:40:57;;;;;;;8.73;4.03;;;10.10;92.50;;;;;;4974358;28;20229;-96
2022/11/27 06:43:52;;;;;;;12.23;4.27;;;10.10;92.50;;;;;;4982671;28;20310;-96
2022/11/27 06:46:26;;;;;;;9.77;3.60;;;10.10;92.50;;;;;;4977237;28;20265;-96
2022/11/27 06:49:31;;;;;;;9.83;3.73;;;10.10;92.50;;;;;;4963761;28;20619;-95
2022/11/27 06:52:14;;;;;;;11.43;4.27;;;10.10;92.70;;;;;;4965242;28;20207;-95
2022/11/27 06:54:56;;;;;;;11.57;4.07;;;10.10;92.70;;;;;;4964812;29;20209;-96
2022/11/27 06:57:45;;;;;;;10.67;4.43;;;10.10;92.40;;;;;;4966241;28;20250;-96
2022/11/27 07:00:25;;;;;;;11.50;4.37;;;10.10;92.40;;;;;;4963206;28;21079;-95
2022/11/27 07:03:00;;;;;;;8.47;3.87;;;10.10;92.80;;;;;;4966700;28;20601;-95
2022/11/27 07:05:40;;;;;;;9.90;3.97;;;10.00;92.70;;;;;;4966097;29;20201;-95
2022/11/27 07:08:16;;;;;;;8.30;3.83;;;10.10;92.70;;;;;;4964986;28;20286;-95
2022/11/27 07:10:53;;;;;;;10.83;4.53;;;10.10;92.80;;;;;;4964610;29;20222;-95
2022/11/27 07:13:21;;;;;;;8.43;4.17;;;10.10;93.10;;;;;;4964009;28;20667;-95
2022/11/27 07:16:00;;;;;;;9.70;4.10;;;10.10;92.70;;;;;;4964147;29;20203;-96
2022/11/27 07:18:34;;;;;;;10.43;4.73;;;10.10;92.80;;;;;;4980132;28;20229;-95
2022/11/27 07:21:09;;;;;;;9.23;3.83;;;10.10;93.00;;;;;;4981558;28;20213;-96
2022/11/27 07:23:57;;;;;;;11.17;4.27;;;10.10;93.00;;;;;;4973426;28;20233;-94
2022/11/27 07:26:37;;;;;;;11.53;4.47;;;10.10;93.00;;;;;;4962804;28;20241;-96
2022/11/27 07:29:07;;;;;;;9.23;4.17;;;10.10;92.90;;;;;;4963000;29;20206;-96
2022/11/27 07:31:38;;;;;;;9.63;3.63;;;10.10;92.70;;;;;;4968712;28;20233;-95
2022/11/27 07:34:07;;;;;;;10.10;4.10;;;10.10;92.90;;;;;;4979142;28;20216;-95
2022/11/27 07:36:41;;;;;;;14.27;4.60;;;10.10;92.80;;;;;;4977050;28;20229;-95
2022/11/27 07:39:10;;;;;;;10.17;4.03;;;10.10;92.80;;;;;;4977606;28;20225;-94
2022/11/27 07:41:45;;;;;;;9.17;4.33;;;10.10;92.90;;;;;;4977326;28;20213;-94
2022/11/27 07:44:14;;;;;;;11.10;4.87;;;10.10;93.10;;;;;;4977846;28;20723;-96
2022/11/27 07:46:42;;;;;;;12.93;4.77;;;10.10;92.80;;;;;;4977306;28;20201;-94
2022/11/27 07:49:23;;;;;;;9.83;4.20;;;10.10;92.70;;;;;;4977033;28;20269;-95
2022/11/27 07:52:03;;;;;;;13.83;5.10;;;10.10;93.00;;;;;;4976960;28;20240;-95
2022/11/27 07:54:35;;;;;;;10.87;4.57;;;10.10;93.00;;;;;;4974864;28;20270;-94
2022/11/27 07:57:07;;;;;;;8.60;3.70;;;10.10;92.90;;;;;;4976161;28;20236;-96
2022/11/27 07:59:35;;;;;;;14.83;4.80;;;10.10;93.10;;;;;;4976442;28;20210;-95
2022/11/27 08:04:45;;;;;;;14.43;4.93;;;10.10;92.90;;;;;;4956798;28;20323;-95
2022/11/27 08:07:20;;;;;;;11.77;4.67;;;10.10;92.90;;;;;;4974592;28;20639;-95
2022/11/27 08:10:01;;;;;;;10.53;4.63;;;10.10;93.20;;;;;;4975722;28;20224;-94
2022/11/27 08:12:30;;;;;;;14.53;5.63;;;10.10;93.10;;;;;;4975451;28;20200;-94
2022/11/27 08:15:03;;;;;;;10.50;4.30;;;10.10;92.90;;;;;;4969000;28;20202;-95
2022/11/27 08:17:32;;;;;;;17.00;6.13;;;10.10;92.90;;;;;;4984358;28;20202;-95
2022/11/27 08:20:04;;;;;;;15.90;5.37;;;10.00;92.80;;;;;;4983558;28;20267;-95
2022/11/27 08:22:36;;;;;;;17.97;6.17;;;10.10;93.00;;;;;;4980005;28;20206;-95
2022/11/27 08:25:06;;;;;;;15.00;5.57;;;10.10;93.10;;;;;;4976950;28;20699;-96
2022/11/27 08:27:35;;;;;;;15.23;5.27;;;10.10;93.00;;;;;;4974796;28;20298;-95
2022/11/27 08:30:07;;;;;;;12.33;4.87;;;10.10;93.00;;;;;;4974805;28;20719;-95
2022/11/27 08:32:35;;;;;;;10.40;4.50;;;10.10;93.10;;;;;;4977252;28;20241;-95
2022/11/27 08:35:06;;;;;;;17.40;5.90;;;10.10;93.00;;;;;;4967293;28;20225;-95
2022/11/27 08:37:41;;;;;;;12.27;4.80;;;10.10;93.00;;;;;;4971137;28;20711;-96
2022/11/27 08:40:14;;;;;;;11.93;5.30;;;10.10;93.00;;;;;;4983253;28;20289;-96
2022/11/27 08:42:47;;;;;;;15.97;5.27;;;10.10;93.00;;;;;;4979789;28;20571;-93
2022/11/27 08:45:17;;;;;;;12.73;5.13;;;10.10;93.10;;;;;;4980100;28;20326;-95
2022/11/27 08:47:50;;;;;;;13.27;5.53;;;10.10;92.90;;;;;;4979715;28;20210;-95
2022/11/27 08:50:17;;;;;;;15.13;5.33;;;10.10;92.90;;;;;;4978529;28;20676;-95
2022/11/27 08:52:47;;;;;;;13.13;5.63;;;10.10;93.00;;;;;;4976536;28;20712;-94
2022/11/27 08:55:16;;;;;;;14.13;5.93;;;10.10;93.30;;;;;;4975994;28;20220;-94
2022/11/27 08:57:47;;;;;;;18.50;6.97;;;10.10;93.20;;;;;;4976324;28;20198;-94
2022/11/27 09:00:23;;;;;;;10.63;4.80;;;10.10;93.50;;;;;;4977291;28;20214;-94
2022/11/27 09:02:50;;;;;;;16.13;6.07;;;10.10;93.40;;;;;;4977312;28;20241;-95
2022/11/27 09:05:19;;;;;;;12.67;5.27;;;10.10;93.20;;;;;;5001590;28;20210;-95
2022/11/27 09:07:51;;;;;;;18.67;6.73;;;10.20;93.10;;;;;;4988207;28;20342;-94
2022/11/27 09:10:32;;;;;;;16.50;5.70;;;10.20;93.30;;;;;;4976466;28;20228;-94
2022/11/27 09:12:59;;;;;;;13.43;5.63;;;10.20;93.20;;;;;;4983341;28;20214;-94
2022/11/27 09:15:33;;;;;;;21.80;6.63;;;10.10;93.00;;;;;;4968181;28;20210;-94
2022/11/27 09:18:04;;;;;;;14.63;5.67;;;10.20;93.10;;;;;;4961945;28;20923;-94
2022/11/27 09:20:37;;;;;;;12.27;5.37;;;10.10;93.20;;;;;;4961557;29;20258;-96
2022/11/27 09:23:09;;;;;;;14.83;5.53;;;10.10;93.20;;;;;;4970053;28;20254;-95
2022/11/27 09:25:41;;;;;;;16.00;5.73;;;10.20;93.10;;;;;;4982934;28;20202;-95
2022/11/27 09:28:12;;;;;;;13.27;4.90;;;10.20;93.10;;;;;;4981453;28;20261;-94
2022/11/27 09:30:45;;;;;;;15.63;5.80;;;10.10;93.00;;;;;;4976273;28;20207;-94
2022/11/27 09:33:19;;;;;;;15.57;5.70;;;10.10;93.10;;;;;;4962655;28;20208;-94
2022/11/27 09:35:50;;;;;;;13.83;5.43;;;10.20;93.20;;;;;;4962833;28;20209;-95
2022/11/27 09:38:33;;;;;;;13.60;5.50;;;10.20;93.10;;;;;;4973103;28;20215;-95
2022/11/27 09:41:07;;;;;;;15.33;5.50;;;10.10;93.30;;;;;;4984618;28;20211;-92
2022/11/27 09:43:43;;;;;;;14.87;5.20;;;10.20;93.30;;;;;;4986243;28;20225;-94
2022/11/27 09:46:19;;;;;;;13.20;5.47;;;10.20;93.20;;;;;;4985319;28;20210;-95
2022/11/27 09:48:52;;;;;;;14.97;5.43;;;10.10;93.40;;;;;;4980396;28;20223;-95
2022/11/27 09:51:28;;;;;;;16.23;6.10;;;10.10;93.40;;;;;;4977687;28;20651;-94
2022/11/27 09:54:08;;;;;;;18.37;5.40;;;10.20;93.40;;;;;;4971982;28;20237;-95
2022/11/27 09:56:46;;;;;;;16.07;6.17;;;10.20;93.30;;;;;;4977524;28;20226;-95
2022/11/27 09:59:18;;;;;;;18.17;6.33;;;10.20;93.30;;;;;;4976337;28;20210;-93
2022/11/27 10:01:46;;;;;;;10.90;5.60;;;10.20;93.30;;;;;;4980509;28;20310;-95
2022/11/27 10:04:23;;;;;;;15.23;5.93;;;10.10;93.50;;;;;;4982435;28;20237;-95
2022/11/27 10:07:13;;;;;;;15.97;5.37;;;10.20;93.60;;;;;;4980999;28;20209;-95
2022/11/27 10:09:58;;;;;;;15.50;5.73;;;10.10;93.60;;;;;;4966632;28;20214;-94
2022/11/27 10:12:48;;;;;;;13.60;4.90;;;10.20;93.80;;;;;;4968677;28;20203;-95
2022/11/27 10:15:35;;;;;;;10.93;4.87;;;10.20;94.00;;;;;;4966779;28;20204;-96
2022/11/27 10:18:15;;;;;;;14.43;5.47;;;10.20;93.90;;;;;;4964757;28;20230;-94
2022/11/27 10:20:56;;;;;;;14.50;5.40;;;10.20;93.80;;;;;;4965056;28;20864;-95
2022/11/27 10:23:45;;;;;;;14.07;5.23;;;10.20;93.60;;;;;;4975982;28;20722;-94
2022/11/27 10:26:31;;;;;;;9.50;5.13;;;10.20;93.90;;;;;;4986983;28;20299;-95
2022/11/27 10:32:11;;;;;;;14.50;5.60;;;10.20;93.60;;;;;;4975245;28;20605;-94
2022/11/27 10:34:48;;;;;;;11.10;4.73;;;10.30;93.70;;;;;;4969681;29;20211;-95
2022/11/27 10:37:23;;;;;;;15.07;5.43;;;10.20;93.90;;;;;;4965712;29;20203;-94
2022/11/27 10:40:01;;;;;;;12.00;4.73;;;10.20;93.90;;;;;;4980513;28;21032;-96
2022/11/27 10:42:36;;;;;;;14.87;5.37;;;10.30;94.00;;;;;;4984336;28;20194;-94
2022/11/27 10:45:21;;;;;;;14.90;5.70;;;10.30;94.00;;;;;;4987643;28;20581;-93
2022/11/27 10:47:51;;;;;;;13.50;5.67;;;10.30;94.10;;;;;;4989224;28;20294;-94
2022/11/27 10:50:22;;;;;;;16.73;6.30;;;10.30;93.90;;;;;;4989254;28;20254;-94
2022/11/27 10:52:58;;;;;;;13.43;5.40;;;10.30;93.90;;;;;;4989908;28;20225;-94
2022/11/27 10:55:44;;;;;;;11.50;4.90;;;10.30;93.90;;;;;;4987958;28;20678;-94
2022/11/27 10:58:19;;;;;;;11.60;4.97;;;10.30;94.20;;;;;;4987573;28;20216;-95
2022/11/27 11:00:48;;;;;;;16.63;6.23;;;10.30;94.00;;;;;;4981245;28;20197;-94
2022/11/27 11:03:18;;;;;;;12.43;5.13;;;10.30;94.00;;;;;;4977735;28;20216;-95
2022/11/27 11:05:59;;;;;;;16.27;6.63;;;10.30;94.00;;;;;;4994220;28;20262;-94
2022/11/27 11:08:33;;;;;;;12.17;5.37;;;10.30;94.20;;;;;;4987404;28;20225;-94
2022/11/27 11:11:04;;;;;;;16.27;6.03;;;10.30;94.10;;;;;;4980136;28;20334;-95
2022/11/27 11:13:49;;;;;;;16.33;6.40;;;10.30;94.20;;;;;;4981510;28;20627;-95
2022/11/27 11:16:23;;;;;;;13.37;5.33;;;10.40;94.20;;;;;;4981490;28;20213;-95
2022/11/27 11:18:56;;;;;;;17.77;6.50;;;10.40;94.20;;;;;;4976582;28;20206;-95
2022/11/27 11:21:28;;;;;;;18.57;6.90;;;10.40;94.20;;;;;;4980796;28;20215;-95
2022/11/27 11:24:01;;;;;;;19.47;6.53;;;10.40;94.30;;;;;;4980120;28;20219;-96
2022/11/27 11:26:33;;;;;;;14.27;5.53;;;10.40;94.30;;;;;;4977879;28;20214;-96
2022/11/27 11:29:36;;;;;;;15.27;6.30;;;10.40;94.20;;;;;;4977279;28;20203;-95
2022/11/27 11:32:14;;;;;;;18.67;6.83;;;10.40;94.40;;;;;;4975785;28;20214;-94
2022/11/27 11:34:50;;;;;;;18.50;6.73;;;10.40;94.20;;;;;;4975635;28;20431;-96
2022/11/27 11:37:22;;;;;;;12.57;5.50;;;10.40;94.20;;;;;;4970378;28;20218;-94
2022/11/27 11:40:03;;;;;;;18.77;7.17;;;10.40;94.20;;;;;;4975126;28;20301;-95
2022/11/27 11:42:35;;;;;;;14.77;5.80;;;10.40;94.30;;;;;;4977834;28;20213;-95
2022/11/27 11:45:07;;;;;;;17.80;6.63;;;10.40;94.30;;;;;;4978588;28;20262;-96
2022/11/27 11:47:44;;;;;;;15.20;5.60;;;10.40;94.30;;;;;;4978054;28;20204;-95
2022/11/27 11:50:14;;;;;;;15.60;6.27;;;10.40;94.30;;;;;;4977909;28;20209;-94
2022/11/27 11:52:54;;;;;;;11.10;4.97;;;10.40;94.40;;;;;;4978147;28;20209;-93
2022/11/27 11:55:27;;;;;;;17.87;6.27;;;10.50;94.40;;;;;;4971567;28;20262;-95
2022/11/27 11:58:23;;;;;;;17.10;6.50;;;10.50;94.30;;;;;;4971993;28;20214;-94
2022/11/27 12:01:06;;;;;;;13.53;5.33;;;10.50;94.40;;;;;;4970371;28;20283;-93
2022/11/27 12:03:42;;;;;;;17.43;6.27;;;10.50;94.40;;;;;;4968630;28;20207;-94
2022/11/27 12:06:36;;;;;;;12.17;5.03;;;10.50;94.30;;;;;;4974603;28;20202;-95
2022/11/27 12:09:13;;;;;;;14.63;5.33;;;10.50;94.30;;;;;;4977590;28;20278;-95
2022/11/27 12:11:50;;;;;;;16.13;5.77;;;10.50;94.20;;;;;;4980494;28;20261;-95
2022/11/27 12:14:31;;;;;;;11.23;4.97;;;10.50;94.10;;;;;;4974120;28;20219;-96
2022/11/27 12:17:21;;;;;;;14.90;5.80;;;10.50;94.20;;;;;;4973283;28;20203;-95
2022/11/27 12:20:24;;;;;;;15.20;6.03;;;10.50;94.30;;;;;;4972917;28;20262;-95
2022/11/27 12:23:19;;;;;;;13.17;5.27;;;10.50;94.50;;;;;;4973482;28;20836;-94
2022/11/27 12:26:02;;;;;;;16.17;5.77;;;10.60;94.40;;;;;;4972923;28;20233;-94
2022/11/27 12:29:01;;;;;;;15.10;5.63;;;10.50;94.40;;;;;;4976104;28;20729;-95
2022/11/27 12:32:04;;;;;;;23.30;7.90;;;10.50;94.50;;;;;;4972460;28;20665;-93
2022/11/27 12:34:49;;;;;;;19.77;6.63;;;10.50;94.60;;;;;;4956801;28;20302;-94
2022/11/27 12:37:39;;;;;;;14.80;5.40;;;10.50;94.50;;;;;;4969006;28;20233;-94
2022/11/27 12:40:33;;;;;;;20.83;7.00;;;10.50;94.60;;;;;;4976615;28;20695;-94
2022/11/27 12:43:22;;;;;;;20.40;7.03;;;10.60;94.60;;;;;;4974077;28;20266;-93
2022/11/27 12:45:56;;;;;;;17.40;6.30;;;10.50;94.70;;;;;;4975782;28;20241;-95
2022/11/27 12:48:31;;;;;;;15.93;6.13;;;10.60;94.80;;;;;;4985681;28;20206;-93
2022/11/27 12:51:06;;;;;;;9.43;4.33;;;10.60;94.90;;;;;;4975078;28;20229;-94
2022/11/27 12:53:48;;;;;;;16.33;6.17;;;10.60;95.00;;;;;;4973723;28;20210;-95
2022/11/27 12:56:23;;;;;;;16.63;5.87;;;10.60;94.80;;;;;;4972449;28;20282;-93
2022/11/27 12:58:55;;;;;;;14.37;5.83;;;10.70;95.10;;;;;;4974333;28;20206;-94
2022/11/27 13:01:27;;;;;;;15.63;5.67;;;10.60;94.80;;;;;;4975082;28;20219;-94
2022/11/27 13:04:18;;;;;;;19.07;6.33;;;10.70;94.80;;;;;;4973569;28;20202;-93
2022/11/27 13:07:05;;;;;;;17.37;6.27;;;10.70;95.00;;;;;;4973802;28;20214;-93
2022/11/27 13:09:44;;;;;;;14.83;5.80;;;10.70;94.90;;;;;;4971630;28;20250;-93
2022/11/27 13:12:20;;;;;;;10.87;4.80;;;10.70;94.90;;;;;;4973970;28;20217;-94
2022/11/27 13:14:56;;;;;;;15.50;6.90;;;10.70;95.00;;;;;;4976335;28;20749;-94
2022/11/27 13:17:32;;;;;;;12.90;5.43;;;10.70;95.00;;;;;;4973753;28;20209;-94
2022/11/27 13:20:03;;;;;;;12.40;5.37;;;10.70;94.90;;;;;;4973186;28;20202;-94
2022/11/27 13:22:38;;;;;;;17.67;6.90;;;10.80;94.80;;;;;;4972824;28;20286;-95
2022/11/27 13:25:06;;;;;;;21.10;6.20;;;10.70;94.70;;;;;;4972682;28;20563;-93
2022/11/27 13:27:38;;;;;;;13.30;5.70;;;10.80;94.70;;;;;;4956749;28;20318;-95
2022/11/27 13:30:10;;;;;;;15.27;5.97;;;10.80;94.80;;;;;;4955211;29;20699;-94
2022/11/27 13:32:43;;;;;;;14.13;5.50;;;10.80;94.70;;;;;;4965876;29;20648;-94
2022/11/27 13:35:21;;;;;;;9.17;4.63;;;10.80;94.70;;;;;;4968051;28;20651;-93
2022/11/27 13:37:59;;;;;;;8.37;4.73;;;10.80;94.90;;;;;;4975265;28;20214;-95
2022/11/27 13:40:31;;;;;;;9.37;4.97;;;10.80;94.80;;;;;;4972616;28;20230;-93
2022/11/27 13:43:05;;;;;;;11.97;5.53;;;10.90;94.90;;;;;;4972709;28;20217;-93
2022/11/27 13:45:36;;;;;;;14.23;5.43;;;10.80;94.70;;;;;;4971580;28;20235;-93
2022/11/27 13:48:27;;;;;;;8.77;4.80;;;10.80;94.70;;;;;;4978198;28;20214;-95
2022/11/27 13:50:56;;;;;;;12.30;5.27;;;10.80;94.80;;;;;;4982217;28;20302;-94
2022/11/27 13:53:36;;;;;;;16.80;7.00;;;10.90;94.60;;;;;;4968774;28;20290;-95
2022/11/27 13:56:04;;;;;;;9.43;4.67;;;10.80;94.60;;;;;;4974063;28;20587;-94
2022/11/27 13:58:39;;;;;;;8.07;4.63;;;10.90;94.60;;;;;;4974738;28;20284;-94
2022/11/27 14:01:15;;;;;;;13.53;5.90;;;10.90;94.60;;;;;;4975315;28;20220;-94
2022/11/27 14:03:44;;;;;;;12.10;5.50;;;10.90;94.70;;;;;;4977530;28;20230;-95
2022/11/27 14:06:32;;;;;;;13.17;6.03;;;10.90;94.50;;;;;;4977046;28;20234;-94
2022/11/27 14:09:09;;;;;;;13.17;6.07;;;10.90;94.70;;;;;;4973893;28;20614;-94
2022/11/27 14:11:42;;;;;;;12.43;5.73;;;10.90;94.70;;;;;;4977287;28;20254;-92
2022/11/27 14:14:17;;;;;;;10.70;4.63;;;10.80;94.70;;;;;;4976470;28;20207;-94
2022/11/27 14:16:56;;;;;;;10.10;5.07;;;10.90;94.90;;;;;;4976365;28;20206;-95
2022/11/27 14:19:29;;;;;;;11.33;5.23;;;10.90;94.90;;;;;;4977687;28;20206;-95
2022/11/27 14:21:58;;;;;;;15.40;6.37;;;10.90;94.80;;;;;;4974427;28;21255;-94
2022/11/27 14:24:39;;;;;;;12.70;6.47;;;10.90;94.60;;;;;;4974031;28;21104;-94
2022/11/27 14:27:18;;;;;;;11.63;5.93;;;10.90;94.70;;;;;;4976746;28;20210;-94
2022/11/27 14:29:45;;;;;;;14.90;6.00;;;10.90;94.70;;;;;;4975501;28;20210;-94
2022/11/27 14:32:16;;;;;;;11.83;6.10;;;10.90;94.60;;;;;;4974887;28;20206;-94
2022/11/27 14:34:47;;;;;;;13.13;5.93;;;10.90;94.70;;;;;;4975560;28;20868;-95
2022/11/27 14:37:24;;;;;;;11.90;5.60;;;10.90;94.60;;;;;;4974956;28;20203;-94
2022/11/27 14:39:57;;;;;;;12.63;6.20;;;10.90;94.70;;;;;;4976839;28;20242;-93
2022/11/27 14:42:27;;;;;;;14.33;6.10;;;10.90;94.70;;;;;;4977488;28;20199;-94
2022/11/27 14:45:07;;;;;;;11.87;6.03;;;10.90;94.70;;;;;;4976531;28;20287;-95
2022/11/27 14:47:36;;;;;;;11.73;5.77;;;10.90;94.80;;;;;;4967022;28;20198;-95
2022/11/27 14:50:07;;;;;;;9.40;5.00;;;10.90;94.70;;;;;;4981069;28;20270;-94
2022/11/27 14:52:38;;;;;;;13.03;6.50;;;10.90;94.80;;;;;;4980508;28;20238;-94
2022/11/27 14:55:15;;;;;;;15.17;6.13;;;10.90;94.90;;;;;;4977739;28;20732;-94
2022/11/27 14:57:45;;;;;;;14.63;6.37;;;10.90;95.00;;;;;;4979386;28;20322;-94
2022/11/27 15:00:19;;;;;;;10.50;5.30;;;10.90;94.80;;;;;;4958397;28;20664;-95
2022/11/27 15:02:48;;;;;;;13.60;5.80;;;10.90;94.90;;;;;;4966666;29;20212;-94
2022/11/27 15:05:23;;;;;;;14.97;6.37;;;10.90;94.80;;;;;;4969697;28;20286;-95
2022/11/27 15:07:53;;;;;;;11.60;6.03;;;10.90;94.80;;;;;;4959357;28;20237;-94
2022/11/27 15:10:30;;;;;;;14.00;5.90;;;10.90;94.80;;;;;;4958231;28;20207;-94
2022/11/27 15:13:19;;;;;;;11.00;5.33;;;10.90;94.80;;;;;;4963461;28;20672;-93
2022/11/27 15:15:57;;;;;;;12.77;5.97;;;10.90;94.60;;;;;;4989229;28;20206;-93
2022/11/27 15:18:28;;;;;;;13.80;5.93;;;10.90;94.60;;;;;;4986162;28;20218;-94
2022/11/27 15:20:57;;;;;;;15.73;6.10;;;11.00;94.60;;;;;;4978832;28;20297;-94
2022/11/27 15:23:28;;;;;;;14.07;5.80;;;10.90;94.50;;;;;;4979187;28;20214;-93
2022/11/27 15:26:26;;;;;;;10.67;4.97;;;10.90;94.60;;;;;;4978734;28;20230;-93
2022/11/27 15:28:57;;;;;;;11.67;6.00;;;10.90;94.70;;;;;;4978374;28;20203;-93
2022/11/27 15:31:36;;;;;;;8.33;4.97;;;10.90;94.60;;;;;;4979445;28;20206;-94
2022/11/27 15:34:20;;;;;;;10.40;5.47;;;10.90;94.70;;;;;;4978649;28;20230;-94
2022/11/27 15:36:55;;;;;;;14.10;6.13;;;11.00;94.70;;;;;;4978636;28;20719;-93
2022/11/27 15:39:25;;;;;;;14.90;6.40;;;11.00;94.70;;;;;;4977473;28;20318;-93
2022/11/27 15:42:03;;;;;;;14.40;6.33;;;10.90;94.60;;;;;;4974727;28;20690;-94
2022/11/27 15:44:37;;;;;;;11.93;5.83;;;11.00;94.70;;;;;;4974294;28;20202;-94
2022/11/27 15:47:07;;;;;;;13.13;6.50;;;11.00;94.70;;;;;;4972950;28;20637;-94
2022/11/27 15:49:35;;;;;;;13.73;6.40;;;11.00;94.60;;;;;;4974048;28;20250;-93
2022/11/27 15:52:03;;;;;;;11.07;5.63;;;11.00;94.60;;;;;;4973988;28;20210;-94
2022/11/27 15:54:34;;;;;;;13.07;6.53;;;11.00;94.60;;;;;;4974618;28;20549;-94
2022/11/27 15:57:04;;;;;;;13.20;5.83;;;11.00;94.60;;;;;;4971143;28;20258;-93
2022/11/27 15:59:38;;;;;;;14.40;6.43;;;11.00;94.60;;;;;;4977584;28;20210;-94
2022/11/27 16:02:08;;;;;;;17.83;7.67;;;11.00;94.50;;;;;;4970868;28;20229;-95
2022/11/27 16:04:35;;;;;;;12.40;6.03;;;11.00;94.60;;;;;;4978087;28;20217;-94
2022/11/27 16:07:08;;;;;;;10.80;5.70;;;11.00;94.50;;;;;;4976708;28;20210;-94
2022/11/27 16:09:38;;;;;;;15.07;6.33;;;11.00;94.60;;;;;;4972633;28;20309;-94
2022/11/27 16:12:10;;;;;;;14.77;6.47;;;11.00;94.60;;;;;;4975414;28;20198;-94
2022/11/27 16:14:39;;;;;;;13.90;6.50;;;11.00;94.60;;;;;;4972348;28;20213;-94
2022/11/27 16:17:07;;;;;;;9.77;5.47;;;11.00;94.60;;;;;;4969252;28;20208;-95
2022/11/27 16:19:34;;;;;;;11.13;5.63;;;11.00;94.60;;;;;;4957452;28;20266;-96
2022/11/27 16:22:03;;;;;;;12.57;6.40;;;11.00;94.60;;;;;;4957761;28;20208;-95
2022/11/27 16:24:35;;;;;;;11.20;6.03;;;11.00;94.60;;;;;;4956513;28;20266;-95
2022/11/27 16:27:02;;;;;;;10.77;5.83;;;11.00;94.70;;;;;;4963453;28;20337;-95
2022/11/27 16:29:32;;;;;;;13.07;6.13;;;11.00;94.70;;;;;;4984779;28;20207;-95
2022/11/27 16:32:01;;;;;;;11.63;6.30;;;11.00;94.60;;;;;;4989770;28;20271;-95
2022/11/27 16:34:34;;;;;;;15.90;6.50;;;11.00;94.70;;;;;;4988961;28;20211;-94
2022/11/27 16:37:03;;;;;;;15.00;7.17;;;11.00;94.70;;;;;;4968974;28;20211;-95
2022/11/27 16:39:34;;;;;;;12.90;6.00;;;11.00;94.60;;;;;;4970091;28;20250;-94
2022/11/27 16:42:04;;;;;;;13.23;6.13;;;11.00;94.80;;;;;;4970637;29;20191;-96
2022/11/27 16:44:44;;;;;;;13.27;6.83;;;11.00;94.70;;;;;;4968674;29;20206;-96
2022/11/27 16:47:11;;;;;;;11.30;6.10;;;11.00;94.80;;;;;;4957192;29;20265;-95
2022/11/27 16:49:42;;;;;;;13.37;6.37;;;10.90;94.50;;;;;;4964628;28;20887;-95
2022/11/27 16:52:15;;;;;;;13.80;6.10;;;11.00;94.50;;;;;;4980349;28;20207;-95
2022/11/27 16:54:44;;;;;;;13.30;6.27;;;11.00;94.70;;;;;;4981801;28;20207;-95
2022/11/27 16:57:12;;;;;;;11.80;5.80;;;10.90;94.60;;;;;;4977259;28;20215;-95
2022/11/27 16:59:41;;;;;;;13.77;6.77;;;10.90;94.60;;;;;;4975311;28;20238;-95
2022/11/27 17:02:22;;;;;;;13.17;6.47;;;10.90;94.70;;;;;;4978564;28;20226;-95
2022/11/27 17:05:03;;;;;;;15.00;7.00;;;10.90;94.70;;;;;;4973595;28;20202;-94
2022/11/27 17:07:36;;;;;;;11.00;5.57;;;10.90;94.60;;;;;;4964604;28;20211;-95
2022/11/27 17:10:17;;;;;;;14.17;6.53;;;10.90;94.60;;;;;;4964721;28;20217;-95
2022/11/27 17:12:46;;;;;;;15.57;6.80;;;10.90;94.70;;;;;;4974750;28;20230;-95
2022/11/27 17:15:18;;;;;;;16.10;7.07;;;10.90;94.50;;;;;;4979177;28;20203;-95
2022/11/27 17:17:48;;;;;;;16.07;6.93;;;10.90;94.60;;;;;;4989316;28;20226;-95
2022/11/27 17:20:21;;;;;;;11.17;5.73;;;10.90;94.70;;;;;;4983218;28;20202;-95
2022/11/27 17:22:54;;;;;;;15.57;6.60;;;10.90;94.70;;;;;;4973509;28;20672;-95
2022/11/27 17:25:25;;;;;;;12.37;6.30;;;10.90;94.70;;;;;;4965778;28;20342;-95
2022/11/27 17:28:01;;;;;;;10.97;5.90;;;10.90;94.60;;;;;;4964446;28;20655;-94
2022/11/27 17:30:31;;;;;;;13.63;6.67;;;10.90;94.60;;;;;;4970906;28;20785;-95
2022/11/27 17:33:02;;;;;;;9.90;5.67;;;10.90;94.50;;;;;;4973221;28;20589;-94
2022/11/27 17:35:30;;;;;;;10.67;5.80;;;10.90;94.50;;;;;;4973857;28;20211;-95